TimeEDT,TemperatureF,Dew PointF,Humidity,Sea Level PressureIn,VisibilityMPH,Wind Direction,Wind SpeedMPH,Gust SpeedMPH,PrecipitationIn,Events,Conditions,WindDirDegrees,DateUTC
12:15 AM,68.0,50.0,52,29.97,10.0,WSW,8.1,-,N/A,,Clear,250,2013-05-16 04:15:00
12:35 AM,68.0,50.0,52,29.96,10.0,WSW,9.2,-,N/A,,Clear,250,2013-05-16 04:35:00
12:55 AM,68.0,50.0,52,29.96,10.0,WSW,9.2,-,N/A,,Clear,250,2013-05-16 04:55:00
1:15 AM,68.0,50.0,52,29.96,10.0,WSW,8.1,-,N/A,,Clear,250,2013-05-16 05:15:00
1:35 AM,66.2,50.0,56,29.96,10.0,WSW,8.1,-,N/A,,Clear,250,2013-05-16 05:35:00
1:55 AM,66.2,50.0,56,29.96,10.0,WSW,5.8,-,N/A,,Clear,250,2013-05-16 05:55:00
2:15 AM,64.4,50.0,59,29.96,10.0,WSW,4.6,-,N/A,,Clear,250,2013-05-16 06:15:00
2:35 AM,62.6,50.0,63,29.96,10.0,WSW,6.9,-,N/A,,Clear,240,2013-05-16 06:35:00
2:55 AM,62.6,50.0,63,29.96,10.0,WSW,5.8,-,N/A,,Clear,240,2013-05-16 06:55:00
3:15 AM,62.6,50.0,63,29.96,10.0,WSW,5.8,-,N/A,,Clear,240,2013-05-16 07:15:00
3:35 AM,62.6,50.0,63,29.96,10.0,WSW,5.8,-,N/A,,Clear,240,2013-05-16 07:35:00
3:55 AM,62.6,50.0,63,29.95,10.0,SW,9.2,-,N/A,,Clear,230,2013-05-16 07:55:00
4:15 AM,60.8,50.0,68,29.95,10.0,SW,8.1,-,N/A,,Clear,230,2013-05-16 08:15:00
4:35 AM,60.8,50.0,68,29.95,10.0,WSW,8.1,-,N/A,,Clear,240,2013-05-16 08:35:00
4:55 AM,60.8,50.0,68,29.96,10.0,WSW,6.9,-,N/A,,Clear,240,2013-05-16 08:55:00
5:15 AM,60.8,50.0,68,29.96,10.0,WSW,5.8,-,N/A,,Clear,240,2013-05-16 09:15:00
5:35 AM,60.8,50.0,68,29.96,10.0,WSW,5.8,-,N/A,,Clear,240,2013-05-16 09:35:00
5:55 AM,60.8,51.8,72,29.95,10.0,WSW,8.1,-,N/A,,Clear,240,2013-05-16 09:55:00
6:15 AM,60.8,51.8,72,29.96,10.0,WSW,6.9,-,N/A,,Clear,250,2013-05-16 10:15:00
6:35 AM,60.8,51.8,72,29.97,10.0,WSW,8.1,-,N/A,,Clear,240,2013-05-16 10:35:00
6:55 AM,60.8,51.8,72,29.98,10.0,WSW,6.9,-,N/A,,Clear,240,2013-05-16 10:55:00
7:15 AM,60.8,51.8,72,29.98,10.0,WSW,8.1,-,N/A,,Clear,240,2013-05-16 11:15:00
7:35 AM,62.6,53.6,72,29.99,10.0,WSW,6.9,-,N/A,,Clear,240,2013-05-16 11:35:00
7:55 AM,62.6,53.6,72,29.99,10.0,WSW,9.2,-,N/A,,Clear,250,2013-05-16 11:55:00
8:15 AM,64.4,55.4,73,29.99,10.0,WSW,10.4,17.3,N/A,,Scattered Clouds,250,2013-05-16 12:15:00
8:35 AM,66.2,55.4,68,29.99,10.0,WSW,8.1,16.1,N/A,,Mostly Cloudy,250,2013-05-16 12:35:00
8:55 AM,68.0,55.4,64,29.99,10.0,West,13.8,20.7,N/A,,Overcast,270,2013-05-16 12:55:00
9:15 AM,68.0,55.4,64,30.00,10.0,West,10.4,16.1,N/A,,Scattered Clouds,260,2013-05-16 13:15:00
9:35 AM,68.0,55.4,64,30.00,10.0,West,9.2,16.1,N/A,,Mostly Cloudy,260,2013-05-16 13:35:00
9:55 AM,68.0,55.4,64,30.00,10.0,WSW,9.2,-,N/A,,Overcast,250,2013-05-16 13:55:00
10:15 AM,68.0,57.2,68,30.00,10.0,WSW,10.4,17.3,N/A,,Overcast,250,2013-05-16 14:15:00
10:35 AM,69.8,59.0,68,30.00,10.0,West,10.4,18.4,N/A,,Scattered Clouds,270,2013-05-16 14:35:00
10:55 AM,69.8,59.0,68,30.00,10.0,West,9.2,-,N/A,,Clear,280,2013-05-16 14:55:00
11:15 AM,69.8,59.0,68,30.00,10.0,West,8.1,-,N/A,,Clear,260,2013-05-16 15:15:00
11:35 AM,71.6,59.0,64,30.00,10.0,West,9.2,16.1,N/A,,Clear,270,2013-05-16 15:35:00
11:55 AM,73.4,60.8,65,30.00,10.0,West,10.4,17.3,N/A,,Clear,260,2013-05-16 15:55:00
12:15 PM,71.6,60.8,69,30.00,10.0,West,13.8,21.9,N/A,,Mostly Cloudy,260,2013-05-16 16:15:00
12:35 PM,69.8,60.8,73,30.01,10.0,West,13.8,19.6,N/A,,Overcast,270,2013-05-16 16:35:00
12:55 PM,69.8,60.8,73,29.99,10.0,WSW,6.9,-,N/A,,Overcast,240,2013-05-16 16:55:00
1:35 PM,69.8,60.8,73,30.00,10.0,West,10.4,-,N/A,Rain,Light Rain,270,2013-05-16 17:35:00
1:55 PM,69.8,62.6,78,30.00,10.0,WNW,4.6,-,N/A,,Scattered Clouds,290,2013-05-16 17:55:00
2:15 PM,68.0,60.8,78,30.00,10.0,WNW,9.2,18.4,N/A,Rain,Rain,290,2013-05-16 18:15:00
2:35 PM,66.2,62.6,88,30.01,10.0,West,8.1,-,0.01,Rain,Light Rain,270,2013-05-16 18:35:00
3:15 PM,64.4,62.6,94,30.04,10.0,NW,6.9,-,0.02,Rain,Light Rain,310,2013-05-16 19:15:00
3:35 PM,64.4,62.6,94,30.06,5.0,West,3.5,-,0.05,Rain,Rain,280,2013-05-16 19:35:00
3:55 PM,64.4,64.4,100,30.06,4.0,NW,4.6,-,0.09,Rain,Rain,310,2013-05-16 19:55:00
4:15 PM,64.4,62.6,94,30.04,7.0,North,4.6,-,0.02,Rain,Light Rain,350,2013-05-16 20:15:00
4:35 PM,64.4,62.6,94,30.04,5.0,Calm,Calm,-,0.04,Rain,Light Rain,0,2013-05-16 20:35:00
4:55 PM,64.4,62.6,94,30.03,10.0,WSW,5.8,-,0.05,Rain,Light Rain,240,2013-05-16 20:55:00
5:15 PM,64.4,62.6,94,30.02,7.0,West,3.5,-,N/A,Rain,Rain,270,2013-05-16 21:15:00
5:35 PM,64.4,62.6,94,30.02,7.0,WSW,5.8,-,N/A,Rain,Light Rain,240,2013-05-16 21:35:00
6:15 PM,64.4,62.6,94,30.01,10.0,Calm,Calm,-,N/A,,Scattered Clouds,0,2013-05-16 22:15:00
6:35 PM,66.2,64.4,94,30.00,10.0,Calm,Calm,-,N/A,,Clear,0,2013-05-16 22:35:00
6:55 PM,66.2,64.4,94,30.00,10.0,SW,5.8,-,N/A,,Clear,230,2013-05-16 22:55:00
7:15 PM,64.4,64.4,100,30.00,7.0,SW,4.6,-,N/A,,Clear,230,2013-05-16 23:15:00
7:35 PM,64.4,62.6,94,29.99,7.0,SW,6.9,-,N/A,,Clear,230,2013-05-16 23:35:00
7:55 PM,64.4,64.4,100,30.00,7.0,SW,4.6,-,N/A,,Clear,230,2013-05-16 23:55:00
8:15 PM,64.4,62.6,94,30.00,7.0,Calm,Calm,-,N/A,,Clear,0,2013-05-17 00:15:00
8:35 PM,64.4,62.6,94,30.01,7.0,Calm,Calm,-,0.01,,Clear,0,2013-05-17 00:35:00
8:55 PM,62.6,62.6,100,30.01,7.0,SW,4.6,-,0.01,,Clear,230,2013-05-17 00:55:00
9:15 PM,62.6,62.6,100,30.01,7.0,SW,4.6,-,N/A,,Clear,230,2013-05-17 01:15:00
9:35 PM,62.6,62.6,100,30.01,7.0,Calm,Calm,-,N/A,,Clear,0,2013-05-17 01:35:00
9:55 PM,62.6,60.8,94,30.03,5.0,Calm,Calm,-,N/A,,Clear,0,2013-05-17 01:55:00
10:15 PM,62.6,62.6,100,30.03,7.0,Calm,Calm,-,N/A,,Clear,0,2013-05-17 02:15:00
10:35 PM,60.8,60.8,100,30.04,3.0,Calm,Calm,-,N/A,,Clear,0,2013-05-17 02:35:00
10:55 PM,60.8,60.8,100,30.04,2.0,Calm,Calm,-,N/A,,Clear,0,2013-05-17 02:55:00
11:15 PM,60.8,60.8,100,30.04,5.0,Calm,Calm,-,N/A,,Clear,0,2013-05-17 03:15:00
11:35 PM,60.8,60.8,100,30.04,0.8,Calm,Calm,-,N/A,,Mostly Cloudy,0,2013-05-17 03:35:00
11:55 PM,59.0,59.0,100,30.03,0.8,South,3.5,-,N/A,,Mostly Cloudy,190,2013-05-17 03:55:00